Flight Track Log - Related Links

Times and Time Zones

All times are in EDT time to prevent confusion due to time zone crossing. See the N5085K flight status page for this flight to view local times or setup timezone preferences in your user account.

Time Position Orientation Groundspeed Altitude Reporting Facility
EDT Latitude Longitude Course Direction KTS MPH feet Rate Location/Type
Sat 11:38:13 AM 30.7711 -83.2747 169° South 76 87 600  Level Jacksonville Center
Sat 11:39:14 AM 30.7483 -83.2697 170° South 79 91 1,300 689 Climbing Jacksonville Center
Sat 11:40:15 AM 30.7275 -83.2622 163° South 83 96 2,000 744 Climbing Jacksonville Center
Sat 11:41:15 AM 30.7067 -83.2525 158° South 77 89 2,800 694 Climbing Jacksonville Center
Sat 11:42:16 AM 30.7086 -83.2406 79° East 78 90 3,400 590 Climbing Jacksonville Center
Sat 11:43:17 AM 30.7317 -83.2406 360° North 79 91 4,000 545 Climbing Jacksonville Center
Sat 11:44:17 AM 30.7547 -83.2358 10° North 85 98 4,500 545 Climbing Jacksonville Center
Sat 11:45:18 AM 30.7775 -83.2358 360° North 86 99 5,100 545 Climbing Jacksonville Center
Sat 11:46:18 AM 30.8006 -83.2361 359° North 83 96 5,600 545 Climbing Jacksonville Center
Sat 11:47:19 AM 30.8236 -83.2361 360° North 78 90 6,200 563 Climbing Jacksonville Center
Sat 11:48:26 AM 30.8486 -83.2339 North 76 87 6,800 403 Climbing Jacksonville Center
Sat 11:49:33 AM 30.8736 -83.2289 10° North 84 97 7,100 94 Climbing Jacksonville Center
Sat 11:50:33 AM 30.9050 -83.2219 11° North 121 139 7,000 -104 Descending Jacksonville Center
Sat 11:51:28 AM 30.9258 -83.2025 39° Northeast 120 138 6,900  Descending Jacksonville Center
Sat 11:52:28 AM 30.9489 -83.1783 42° Northeast 107 123 7,000 99 Climbing Jacksonville Center
Sat 11:53:29 AM 30.9761 -83.1592 31° Northeast 110 127 7,100  Climbing Jacksonville Center
Sat 11:54:30 AM 31.0011 -83.1325 42° Northeast 116 133 7,000 -50 Descending Jacksonville Center
Sat 11:55:30 AM 31.0283 -83.1156 28° Northeast 115 132 7,000  Level Jacksonville Center
Sat 11:56:31 AM 31.0597 -83.1158 360° North 109 125 7,000  Level Jacksonville Center
Sat 11:57:32 AM 31.0889 -83.1133 North 111 128 7,000  Level Jacksonville Center
Sat 11:58:32 AM 31.1203 -83.1086 North 110 127 7,000  Level Jacksonville Center
Sat 11:59:33 AM 31.1517 -83.1061 North 111 128 7,000  Level Jacksonville Center
Sat 12:00:34 PM 31.1850 -83.1039 North 112 129 7,000  Level Jacksonville Center
Sat 12:01:15 PM 31.2081 -83.1039 360° North 113 130 7,000  Level Jacksonville Center
Sat 12:01:34 PM 31.2164 -83.1039 360° North 115 132 7,000  Level Jacksonville Center
Sat 12:02:15 PM 31.2414 -83.1017 North 113 130 7,000  Level Jacksonville Center
Sat 12:02:35 PM 31.2497 -83.1039 347° North 114 131 7,000  Level Jacksonville Center
Sat 12:03:15 PM 31.2728 -83.1017 North 113 130 7,000  Level Jacksonville Center
Sat 12:03:36 PM 31.2811 -83.1042 346° North 112 129 7,000  Level Jacksonville Center
Sat 12:04:15 PM 31.3019 -83.1017 North 113 130 7,000  Level Jacksonville Center
Sat 12:05:15 PM 31.3353 -83.1017 360° North 120 138 7,000  Level Jacksonville Center
Sat 12:06:15 PM 31.3667 -83.1019 360° North 120 138 7,000  Level Jacksonville Center
Sat 12:07:15 PM 31.4000 -83.1019 360° North 115 132 7,000  Level Jacksonville Center
Sat 12:08:15 PM 31.4314 -83.0994 North 115 132 7,000 -50 Level Jacksonville Center
Sat 12:09:15 PM 31.4628 -83.0994 360° North 115 132 6,900  Descending Jacksonville Center
Sat 12:10:15 PM 31.4942 -83.0997 360° North 115 132 7,000 50 Climbing Jacksonville Center
Sat 12:11:15 PM 31.5253 -83.0997 360° North 115 132 7,000  Level Jacksonville Center
Sat 12:12:15 PM 31.5567 -83.0997 360° North 115 132 7,000  Level Jacksonville Center
Sat 12:13:15 PM 31.5922 -83.0975 North 115 132 7,000 50 Level Jacksonville Center
Sat 12:14:15 PM 31.6236 -83.0950 North 115 132 7,100  Climbing Jacksonville Center
Sat 12:15:15 PM 31.6569 -83.0928 North 115 132 7,000 -50 Descending Jacksonville Center
Sat 12:16:15 PM 31.6903 -83.0953 356° North 120 138 7,000  Level Jacksonville Center
Sat 12:17:15 PM 31.7236 -83.0928 North 120 138 7,000  Level Jacksonville Center
Sat 12:18:15 PM 31.7592 -83.0928 360° North 120 138 7,000  Level Jacksonville Center
Sat 12:19:15 PM 31.7906 -83.0906 North 120 138 7,000 -50 Level Jacksonville Center
Sat 12:20:15 PM 31.8261 -83.0881 North 120 138 6,900  Descending Jacksonville Center
Sat 12:21:15 PM 31.8594 -83.0883 360° North 120 138 7,000 50 Climbing Jacksonville Center
Sat 12:22:15 PM 31.8908 -83.0883 360° North 120 138 7,000  Level Jacksonville Center
Sat 12:23:15 PM 31.9242 -83.0836 North 120 138 7,000  Level Jacksonville Center
Sat 12:24:15 PM 31.9575 -83.0836 360° North 120 138 7,000  Level Jacksonville Center
Sat 12:25:15 PM 31.9931 -83.0811 North 120 138 7,000  Level Jacksonville Center
Sat 12:26:15 PM 32.0244 -83.0764 North 120 138 7,000  Level Jacksonville Center
Sat 12:27:15 PM 32.0558 -83.0714 North 120 138 7,000 38 Level Jacksonville Center
Sat 12:28:55 PM 32.1167 -83.0667 North 117 135 7,100  Climbing Atlanta TRACON
Sat 12:29:55 PM 32.1500 -83.0667 360° North 119 137 7,000 -100 Descending Atlanta TRACON
Sat 12:30:55 PM 32.1833 -83.0667 360° North 122 140 6,900  Descending Atlanta TRACON
Sat 12:31:49 PM 32.2000 -83.0667 360° North 121 139 7,000 53 Climbing Atlanta TRACON
Sat 12:32:49 PM 32.2500 -83.0667 360° North 122 140 7,000  Level Atlanta TRACON
Sat 12:33:49 PM 32.2667 -83.0667 360° North 121 139 7,000  Level Atlanta TRACON
Sat 12:34:49 PM 32.3167 -83.0500 16° North 121 139 7,000  Level Atlanta TRACON
Sat 12:35:43 PM 32.3333 -83.0500 360° North 123 142 7,000  Level Atlanta TRACON
Sat 12:36:43 PM 32.3667 -83.0500 360° North 122 140 7,000  Level Atlanta TRACON
Sat 12:37:44 PM 32.4000 -83.0500 360° North 121 139 7,000  Level Atlanta TRACON
Sat 12:38:43 PM 32.4333 -83.0500 360° North 120 138 7,000  Level Atlanta TRACON
Sat 12:39:43 PM 32.4667 -83.0333 23° Northeast 117 135 7,000  Level Atlanta TRACON
Sat 12:40:43 PM 32.5000 -83.0000 40° Northeast 118 136 7,000  Level Atlanta TRACON
Sat 12:41:43 PM 32.5167 -82.9833 40° Northeast 118 136 7,000 50 Level Atlanta TRACON
Sat 12:42:44 PM 32.5500 -82.9667 23° Northeast 120 138 7,100  Climbing Atlanta TRACON
Sat 12:43:44 PM 32.5833 -82.9500 23° Northeast 124 143 7,000 -105 Descending Atlanta TRACON
Sat 12:44:38 PM 32.6167 -82.9333 23° Northeast 122 140 6,900  Descending Atlanta TRACON
Sat 12:45:38 PM 32.6500 -82.9167 23° Northeast 120 138 7,000 50 Climbing Atlanta TRACON
Sat 12:46:38 PM 32.6667 -82.9000 40° Northeast 119 137 7,000  Level Atlanta TRACON
Sat 12:47:44 PM 32.7000 -82.8833 23° Northeast 118 136 7,000  Level Atlanta TRACON
Sat 12:48:38 PM 32.7333 -82.8667 23° Northeast 120 138 7,000 -53 Level Atlanta TRACON
Sat 12:49:38 PM 32.7500 -82.8500 40° Northeast 118 136 6,900 -50 Descending Atlanta TRACON
Sat 12:50:38 PM 32.7833 -82.8167 40° Northeast 117 135 6,900 -30 Level Atlanta TRACON
Sat 12:52:00 PM 32.8180 -82.7936 29° Northeast  Level FlightAware
Sat 12:59:00 PM 32.9956 -82.6753 29° Northeast  Level FlightAware
Sat 01:00:00 PM 33.0211 -82.6587 29° Northeast  Level FlightAware
Sat 01:01:00 PM 33.0466 -82.6421 29° Northeast  Level FlightAware
Sat 01:02:00 PM 33.0720 -82.6254 29° Northeast  Level FlightAware
Sat 01:03:00 PM 33.0975 -82.6087 29° Northeast  Level FlightAware
Sat 01:04:00 PM 33.1230 -82.5921 29° Northeast  Level FlightAware
Sat 01:05:00 PM 33.1485 -82.5754 29° Northeast  Level FlightAware
Sat 01:06:00 PM 33.1740 -82.5587 29° Northeast  Level FlightAware
Sat 01:07:00 PM 33.1995 -82.5420 29° Northeast  Level FlightAware
Sat 01:08:00 PM 33.2249 -82.5253 29° Northeast  Level FlightAware
Sat 01:09:00 PM 33.2504 -82.5086 29° Northeast  Level FlightAware
Sat 01:10:00 PM 33.2759 -82.4918 29° Northeast  Level FlightAware
Sat 01:11:00 PM 33.3013 -82.4751 29° Northeast  Level FlightAware
Sat 01:12:00 PM 33.3268 -82.4584 29° Northeast  Level FlightAware
Sat 01:13:00 PM 33.3523 -82.4416 29° Northeast  Level FlightAware
Sat 01:14:00 PM 33.3777 -82.4248 29° Northeast  Level FlightAware
Sat 01:15:00 PM 33.4032 -82.4080 29° Northeast  Level FlightAware
Sat 01:16:00 PM 33.4286 -82.3912 29° Northeast  Level FlightAware
Sat 01:17:00 PM 33.4541 -82.3744 29° Northeast  Level FlightAware
Sat 01:18:00 PM 33.4795 -82.3576 29° Northeast  Level FlightAware
Sat 01:19:00 PM 33.5050 -82.3408 29° Northeast  Level FlightAware
Sat 01:20:00 PM 33.5304 -82.3240 29° Northeast  Level FlightAware
Sat 01:21:00 PM 33.5559 -82.3072 29° Northeast  Level FlightAware
Sat 01:22:00 PM 33.5813 -82.2903 29° Northeast  Level FlightAware
Sat 01:23:00 PM 33.6068 -82.2734 29° Northeast  Level FlightAware
Sat 01:24:00 PM 33.6322 -82.2566 29° Northeast  Level FlightAware
Sat 01:25:00 PM 33.6576 -82.2397 29° Northeast  Level FlightAware
Sat 01:26:00 PM 33.6831 -82.2228 29° Northeast  Level FlightAware
Sat 01:27:00 PM 33.7085 -82.2059 29° Northeast  Level FlightAware
Sat 01:28:00 PM 33.7339 -82.1890 29° Northeast  Level FlightAware
Sat 01:29:00 PM 33.7594 -82.1721 29° Northeast  Level FlightAware
Sat 01:30:00 PM 33.7848 -82.1551 29° Northeast  Level FlightAware
Sat 01:31:00 PM 33.8102 -82.1382 29° Northeast  Level FlightAware
Sat 01:32:00 PM 33.8356 -82.1212 29° Northeast  Level FlightAware
Sat 01:33:00 PM 33.8610 -82.1043 29° Northeast  Level FlightAware
Sat 01:34:00 PM 33.8865 -82.0873 29° Northeast  Level FlightAware
Sat 01:35:00 PM 33.9119 -82.0703 29° Northeast  Level FlightAware
Sat 01:36:00 PM 33.9373 -82.0534 29° Northeast  Level FlightAware
Sat 01:37:00 PM 33.9627 -82.0363 29° Northeast  Level FlightAware
Sat 01:38:00 PM 33.9881 -82.0193 29° Northeast  Level FlightAware
Sat 01:39:00 PM 34.0135 -82.0023 29° Northeast  Level FlightAware
Sat 01:40:00 PM 34.0389 -81.9853 29° Northeast  Level FlightAware
Sat 01:41:00 PM 34.0643 -81.9682 29° Northeast  Level FlightAware
Sat 01:42:00 PM 34.0906 -81.9533 25° Northeast  Level FlightAware
Sat 01:43:00 PM 34.1169 -81.9385 25° Northeast  Level FlightAware
Sat 01:44:00 PM 34.1433 -81.9238 25° Northeast  Level FlightAware
Sat 01:45:00 PM 34.1697 -81.9090 25° Northeast  Level FlightAware
Sat 01:46:00 PM 34.1960 -81.8942 25° Northeast  Level FlightAware
Sat 01:47:00 PM 34.2224 -81.8794 25° Northeast  Level FlightAware
Sat 01:48:00 PM 34.2487 -81.8646 25° Northeast  Level FlightAware
Sat 01:49:00 PM 34.2751 -81.8497 25° Northeast  Level FlightAware
Sat 01:50:00 PM 34.3014 -81.8349 25° Northeast  Level FlightAware
Sat 01:51:00 PM 34.3278 -81.8201 25° Northeast  Level FlightAware
Sat 01:52:00 PM 34.3541 -81.8052 25° Northeast  Level FlightAware
Sat 01:52:20 PM 34.5700 -81.7356 25° Northeast 118 136 5,000  Level Atlanta Center
Sat 01:53:00 PM 34.3805 -81.7904 25° Northeast  Level FlightAware
Sat 01:53:51 PM 34.6214 -81.7039 27° Northeast 120 138 4,900  Level Atlanta Center
Sat 01:54:00 PM 34.4068 -81.7755 25° Northeast  Level FlightAware
Sat 01:54:52 PM 34.6483 -81.6906 22° Northeast 115 132 5,000  Level Atlanta Center
Sat 01:55:00 PM 34.4332 -81.7606 25° Northeast  Level FlightAware
Sat 01:55:47 PM 34.6772 -81.6747 24° Northeast 116 133 5,000  Level Atlanta Center
Sat 01:56:00 PM 34.4595 -81.7457 25° Northeast  Level FlightAware
Sat 01:56:48 PM 34.7083 -81.6586 23° Northeast 117 135 5,100  Level Atlanta Center
Sat 01:57:00 PM 34.4858 -81.7308 25° Northeast  Level FlightAware
Sat 01:57:49 PM 34.7392 -81.6450 20° North 119 137 5,100  Level Atlanta Center
Sat 01:58:43 PM 34.7661 -81.6292 26° Northeast 116 133 5,000 -50 Descending Atlanta Center
Sat 01:59:50 PM 34.7992 -81.6081 28° Northeast 127 146 5,000 47 Level Atlanta Center
Sat 02:00:51 PM 34.8300 -81.5919 23° Northeast 123 142 5,100  Climbing Atlanta Center
Sat 02:01:52 PM 34.8608 -81.5706 30° Northeast 121 139 5,000 -98 Descending Atlanta Center
Sat 02:02:53 PM 34.8919 -81.5572 19° North 119 137 4,900 -298 Descending Atlanta Center
Sat 02:03:53 PM 34.9250 -81.5383 25° Northeast 128 147 4,400 -522 Descending Atlanta Center
Sat 02:04:48 PM 34.9539 -81.5275 17° North 132 152 3,900 -492 Descending Atlanta Center
Sat 02:05:55 PM 34.9931 -81.5033 27° Northeast 131 151 3,400 -443 Descending Atlanta Center
Sat 02:06:50 PM 35.0219 -81.4872 25° Northeast 131 151 3,000 -157 Descending Atlanta Center
Sat 02:07:50 PM 35.0531 -81.4761 16° North 120 138 3,100  Climbing Atlanta Center
Sat 02:08:57 PM 35.0881 -81.4547 27° Northeast 120 138 3,000 -90 Descending Atlanta Center
Sat 02:10:04 PM 35.1211 -81.4358 25° Northeast 118 136 2,900 94 Descending Atlanta Center
Sat 02:11:05 PM 35.1519 -81.4197 23° Northeast 115 132 3,200 98 Climbing Atlanta Center
Sat 02:12:06 PM 35.1789 -81.4011 29° Northeast 115 132 3,100 -49 Descending Atlanta Center
Sat 02:13:07 PM 35.2094 -81.3747 35° Northeast 121 139 3,100 -52 Level Atlanta Center
Sat 02:14:01 PM 35.2361 -81.3561 30° Northeast 125 144 3,000  Descending Atlanta Center
Sat 02:15:02 PM 35.2650 -81.3425 21° North 114 131 3,100 47 Climbing Atlanta Center
Sat 02:16:09 PM 35.2983 -81.3311 16° North 112 129 3,100 -47 Level Atlanta Center
Sat 02:17:10 PM 35.3292 -81.3150 23° Northeast 113 130 3,000 -52 Descending Atlanta Center
Sat 02:18:05 PM 35.3539 -81.3039 20° North 114 131 3,000  Level Atlanta Center
Sat 02:19:06 PM 35.3869 -81.2875 22° Northeast 125 144 3,000 -47 Level Atlanta Center
Sat 02:20:12 PM 35.4133 -81.2508 49° Northeast 112 129 2,900 -91 Descending Atlanta Center

Login

Don't have an account? Register now (free) for customized features, flight alerts, and more!